Main page
METAR-TAF:

METAR-TAF

Airports :

Brookings Regional Airport

Brookings, South Dakota, United States

latitude: 44-18N, longitude: 096-49W, elevation: 1647 ft

Current weather observation

The report was made 52 minutes ago, at 09:56 UTC
Wind 20 mph from the West/Northwest with gusts up to 28 mph
Temperature 72°F
Humidity 88%
Pressure 29.97 in. Hg
Visibility: 10 miles
Few clouds at a height of 100 ft
Scattered clouds at a height of 3400 ft

METAR: KBKX 140956Z AUTO 29017G24KT 10SM FEW001 SCT034 22/20 A2997 RMK AO2 SLP145 T02220200

Time: 05:48 (10:48 UTC)


TAF: missing

Weather observations and forecasts of more than 4000 airports (METAR and TAF reports).

The available stations are represented by yellow and red dots on the map.

Hover mouse over dot to see the name of the station.

Then click to see weather observations and forecasts.

To change the map : click on the green buttons with a black cross to zoom in, on the green button with a dash to zoom out, or on the green arrows for adjacent maps.


METAR-TAF: